Time;durP1;ratioP1;P1;durP2;ratioP2;P2;SDS_P1;SDS_P2;PMS_P1;PMS_P2;Temp;Humidity;BMP_temperature;BMP_pressure;BME280_temperature;BME280_humidity;BME280_pressure;Samples;Min_cycle;Max_cycle;Signal;HPM_P1;HPM_P2
2022/08/20 00:00:57;;;;;;;41.40;29.77;;;;;;;19.25;97.85;100654.72;7396525;19;20035;-67
2022/08/20 00:03:28;;;;;;;40.75;28.83;;;;;;;19.25;97.73;100656.53;7396327;19;20022;-67
2022/08/20 00:05:59;;;;;;;42.38;28.77;;;;;;;19.25;97.59;100657.38;7394927;19;20017;-67
2022/08/20 00:08:32;;;;;;;41.95;28.15;;;;;;;19.26;97.42;100667.09;7394849;19;20014;-68
2022/08/20 00:11:01;;;;;;;42.05;29.55;;;;;;;19.28;97.73;100659.00;7394907;19;20022;-67
2022/08/20 00:13:34;;;;;;;43.45;29.30;;;;;;;19.28;97.73;100648.38;7393902;19;20093;-67
2022/08/20 00:16:03;;;;;;;46.03;31.15;;;;;;;19.28;97.45;100640.38;7396276;19;20022;-67
2022/08/20 00:18:32;;;;;;;43.45;28.85;;;;;;;19.29;97.65;100642.09;7394278;19;20022;-67
2022/08/20 00:21:01;;;;;;;41.58;28.92;;;;;;;19.28;97.72;100643.06;7395870;19;20023;-67
2022/08/20 00:23:32;;;;;;;45.35;28.70;;;;;;;19.29;97.37;100650.94;7395294;19;20022;-68
2022/08/20 00:26:00;;;;;;;42.95;29.17;;;;;;;19.28;97.17;100653.69;7395383;19;20015;-67
2022/08/20 00:28:29;;;;;;;40.63;27.60;;;;;;;19.28;97.41;100661.66;7393651;19;20014;-67
2022/08/20 00:30:57;;;;;;;39.75;28.55;;;;;;;19.28;97.62;100661.66;7395202;19;20018;-68
2022/08/20 00:33:27;;;;;;;40.60;28.77;;;;;;;19.27;97.33;100665.28;7394679;19;20022;-67
2022/08/20 00:35:58;;;;;;;40.05;29.42;;;;;;;19.25;97.43;100662.72;7395472;19;20022;-67
2022/08/20 00:38:27;;;;;;;45.13;28.73;;;;;;;19.25;97.58;100662.72;7395050;19;20373;-67
2022/08/20 00:40:59;;;;;;;42.35;29.77;;;;;;;19.24;97.28;100666.31;7394927;19;20027;-67
2022/08/20 00:43:32;;;;;;;41.78;29.63;;;;;;;19.24;97.20;100663.66;7394672;19;20482;-67
2022/08/20 00:46:02;;;;;;;45.17;30.90;;;;;;;19.23;97.03;100666.41;7393932;19;20022;-67
2022/08/20 00:48:33;;;;;;;41.65;29.73;;;;;;;19.20;97.26;100656.81;7395161;19;20015;-67
2022/08/20 00:51:07;;;;;;;41.88;28.25;;;;;;;19.17;97.22;100655.19;7394761;19;20032;-68
2022/08/20 00:53:36;;;;;;;;;;;;;;;19.16;97.23;100663.25;7394836;19;20021;-68
2022/08/20 00:56:08;;;;;;;38.78;28.85;;;;;;;19.14;97.42;100660.66;7393003;19;19919;-67
2022/08/20 00:58:40;;;;;;;42.95;27.90;;;;;;;19.13;97.74;100655.44;7395024;19;20064;-67
2022/08/20 01:01:10;;;;;;;43.95;30.35;;;;;;;19.12;97.42;100659.94;7395251;19;20023;-67
2022/08/20 01:03:41;;;;;;;39.47;30.00;;;;;;;19.10;97.81;100664.47;7394421;19;20019;-67
2022/08/20 01:06:10;;;;;;;44.70;30.55;;;;;;;19.11;97.46;100662.66;7394281;19;20046;-68
2022/08/20 01:08:41;;;;;;;43.88;29.85;;;;;;;19.10;97.75;100666.28;7392646;19;20014;-68
2022/08/20 01:11:15;;;;;;;44.00;31.23;;;;;;;19.09;97.87;100661.91;7400246;19;20015;-66
2022/08/20 01:13:46;;;;;;;43.05;30.65;;;;;;;19.09;97.47;100664.56;7401270;19;20022;-67
2022/08/20 01:16:25;;;;;;;42.60;31.67;;;;;;;19.08;97.87;100661.03;7398711;19;20023;-67
2022/08/20 01:18:56;;;;;;;39.55;28.20;;;;;;;19.07;97.83;100669.09;7401484;19;20038;-67
2022/08/20 01:21:27;;;;;;;42.78;31.90;;;;;;;19.07;98.01;100663.78;7402021;19;20018;-68
2022/08/20 01:23:59;;;;;;;45.67;30.30;;;;;;;19.06;97.73;100660.28;7400033;19;20485;-67
2022/08/20 01:26:33;;;;;;;47.95;32.20;;;;;;;19.05;98.16;100662.06;7400192;19;20015;-67
2022/08/20 01:29:03;;;;;;;;;;;;;;;19.03;97.88;100657.78;7402836;19;20031;-67
2022/08/20 01:31:35;;;;;;;42.65;28.90;;;;;;;19.02;97.94;100648.97;7401481;19;19945;-68
2022/08/20 01:34:06;;;;;;;41.72;29.20;;;;;;;19.02;98.37;100656.09;7400278;19;20094;-68
2022/08/20 01:36:38;;;;;;;40.33;30.85;;;;;;;19.01;98.13;100665.84;7400935;19;20081;-68
2022/08/20 01:39:09;;;;;;;38.95;30.27;;;;;;;19.00;98.14;100661.47;7398522;19;20021;-66
2022/08/20 01:41:50;;;;;;;43.20;30.08;;;;;;;18.98;98.16;100658.06;7401218;19;20423;-67
2022/08/20 01:44:20;;;;;;;42.45;30.88;;;;;;;18.97;98.38;100656.34;7399630;19;20102;-69
2022/08/20 01:46:51;;;;;;;44.35;29.95;;;;;;;18.98;98.22;100660.75;7399130;19;20022;-67
2022/08/20 01:49:22;;;;;;;42.47;30.33;;;;;;;18.97;98.61;100661.69;7400569;19;20482;-68
2022/08/20 01:51:52;;;;;;;41.35;30.98;;;;;;;18.96;98.23;100651.13;7400921;19;20035;-67
2022/08/20 01:54:21;;;;;;;43.50;30.02;;;;;;;18.96;98.69;100654.63;7398074;19;20014;-67
2022/08/20 01:56:59;;;;;;;38.50;29.27;;;;;;;18.97;98.83;100656.34;7397933;19;20018;-69
2022/08/20 01:59:29;;;;;;;42.55;30.88;;;;;;;18.97;98.41;100661.69;7400919;19;20078;-68
2022/08/20 02:02:01;;;;;;;42.70;31.20;;;;;;;18.97;99.00;100672.31;7397857;19;20094;-66
2022/08/20 02:04:30;;;;;;;43.95;30.65;;;;;;;18.96;98.77;100662.63;7397365;19;20351;-70
2022/08/20 02:07:01;;;;;;;43.75;29.75;;;;;;;18.97;98.97;100671.44;7398151;19;20458;-67
2022/08/20 02:09:32;;;;;;;44.72;31.30;;;;;;;18.97;99.30;100661.69;7398214;19;20015;-68
2022/08/20 02:12:04;;;;;;;52.10;32.95;;;;;;;18.97;99.58;100668.78;7400551;19;20094;-67
2022/08/20 02:14:33;;;;;;;43.28;29.85;;;;;;;18.95;99.47;100671.53;7397756;19;20022;-70
2022/08/20 02:17:02;;;;;;;45.95;31.38;;;;;;;18.95;99.67;100670.69;7397551;19;20022;-67
2022/08/20 02:19:37;;;;;;;45.25;31.75;;;;;;;18.94;99.76;100674.28;7399429;19;20015;-67
2022/08/20 02:22:12;;;;;;;43.30;31.40;;;;;;;18.94;100.00;100677.78;7398658;19;20007;-68
2022/08/20 02:24:41;;;;;;;48.22;31.88;;;;;;;18.93;100.00;100683.19;7397598;19;20482;-67
2022/08/20 02:27:13;;;;;;;43.90;30.38;;;;;;;18.91;100.00;100690.44;7397942;19;20028;-67
2022/08/20 02:29:42;;;;;;;45.20;30.98;;;;;;;18.89;100.00;100690.47;7399600;19;20028;-71
2022/08/20 02:32:11;;;;;;;49.60;33.05;;;;;;;18.88;100.00;100681.63;7396488;19;20032;-70
2022/08/20 02:34:40;;;;;;;46.30;32.65;;;;;;;18.88;100.00;100686.97;7396901;19;20025;-70
2022/08/20 02:37:09;;;;;;;47.00;33.25;;;;;;;18.87;100.00;100677.25;7398735;19;20368;-70
2022/08/20 02:39:38;;;;;;;51.60;33.92;;;;;;;18.87;100.00;100690.56;7398766;19;20011;-70
2022/08/20 02:42:07;;;;;;;51.13;33.53;;;;;;;18.88;100.00;100688.78;7398738;19;20019;-70
2022/08/20 02:44:39;;;;;;;45.70;33.88;;;;;;;18.87;100.00;100690.56;7396903;19;20029;-70
2022/08/20 02:47:08;;;;;;;47.13;34.17;;;;;;;18.87;100.00;100685.25;7395935;19;20014;-70
2022/08/20 02:49:37;;;;;;;51.35;34.88;;;;;;;18.88;100.00;100689.63;7398560;19;20014;-70
2022/08/20 02:52:06;;;;;;;49.92;33.90;;;;;;;18.88;100.00;100676.31;7398474;19;20494;-70
2022/08/20 02:54:34;;;;;;;54.13;36.17;;;;;;;18.88;100.00;100672.81;7396728;19;20043;-70
2022/08/20 02:57:03;;;;;;;47.80;34.13;;;;;;;18.88;100.00;100676.31;7398670;19;20010;-70
2022/08/20 02:59:32;;;;;;;51.85;35.17;;;;;;;18.89;100.00;100674.50;7398102;19;20021;-70
2022/08/20 03:02:03;;;;;;;49.55;34.20;;;;;;;18.89;100.00;100675.38;7396422;19;20054;-70
2022/08/20 03:04:32;;;;;;;55.65;34.97;;;;;;;18.89;100.00;100671.84;7396472;19;20364;-70
2022/08/20 03:07:00;;;;;;;54.22;35.58;;;;;;;18.86;100.00;100674.69;7397074;19;20031;-70
2022/08/20 03:09:29;;;;;;;46.58;31.48;;;;;;;18.84;100.00;100669.47;7395532;19;20096;-70
2022/08/20 03:11:58;;;;;;;51.65;34.20;;;;;;;18.83;100.00;100672.19;7398090;19;20018;-70
2022/08/20 03:14:27;;;;;;;51.58;34.47;;;;;;;18.81;100.00;100676.78;7396630;19;20082;-70
2022/08/20 03:16:55;;;;;;;51.78;36.30;;;;;;;18.78;100.00;100664.50;7397569;19;20038;-70
2022/08/20 03:19:27;;;;;;;51.60;35.42;;;;;;;18.75;100.00;100667.34;7397470;19;20039;-70
2022/08/20 03:21:56;;;;;;;49.00;34.63;;;;;;;18.74;100.00;100663.00;7398250;19;20427;-70
2022/08/20 03:24:24;;;;;;;49.92;35.08;;;;;;;18.72;100.00;100654.22;7396404;19;20026;-70
2022/08/20 03:26:53;;;;;;;54.83;35.85;;;;;;;18.71;100.00;100653.34;7395164;19;20031;-70
2022/08/20 03:29:21;;;;;;;54.80;35.75;;;;;;;18.71;100.00;100666.66;7396877;19;20482;-70
2022/08/20 03:31:50;;;;;;;48.97;34.50;;;;;;;18.72;100.00;100664.88;7397135;19;20023;-70
2022/08/20 03:34:18;;;;;;;52.17;34.75;;;;;;;18.70;100.00;100662.31;7394158;19;20498;-69
2022/08/20 03:36:49;;;;;;;52.63;34.80;;;;;;;18.71;100.00;100663.16;7397602;19;20035;-70
2022/08/20 03:39:18;;;;;;;51.47;33.60;;;;;;;18.72;100.00;100668.38;7396592;19;20014;-70
2022/08/20 03:41:47;;;;;;;53.60;34.90;;;;;;;18.73;100.00;100669.25;7396975;19;20022;-70
2022/08/20 03:44:15;;;;;;;52.83;35.15;;;;;;;18.73;100.00;100669.25;7395532;19;20496;-70
2022/08/20 03:46:44;;;;;;;51.83;35.55;;;;;;;18.75;100.00;100663.81;7396232;19;20022;-70
2022/08/20 03:49:12;;;;;;;52.92;34.92;;;;;;;18.76;100.00;100666.41;7396775;19;20026;-70
2022/08/20 03:51:41;;;;;;;60.28;37.40;;;;;;;18.77;100.00;100661.94;7396691;19;20035;-70
2022/08/20 03:54:12;;;;;;;54.60;35.20;;;;;;;18.76;100.00;100671.72;7395671;19;20022;-70
2022/08/20 03:56:40;;;;;;;54.80;34.90;;;;;;;18.77;100.00;100672.59;7395285;19;20027;-70
2022/08/20 03:59:09;;;;;;;54.13;35.92;;;;;;;18.78;100.00;100676.94;7396118;19;20022;-70
2022/08/20 04:01:37;;;;;;;55.67;35.88;;;;;;;18.77;100.00;100683.22;7396361;19;20022;-70
2022/08/20 04:04:06;;;;;;;57.50;35.70;;;;;;;18.76;100.00;100676.19;7394592;19;20026;-70
2022/08/20 04:06:34;;;;;;;59.67;35.95;;;;;;;18.75;100.00;100685.09;7395852;19;20027;-70
2022/08/20 04:09:03;;;;;;;53.13;35.03;;;;;;;18.71;100.00;100685.25;7394720;19;20518;-70
2022/08/20 04:11:35;;;;;;;53.15;36.83;;;;;;;18.71;100.00;100690.56;7396146;19;20028;-70
2022/08/20 04:14:03;;;;;;;53.75;35.47;;;;;;;18.69;100.00;100689.81;7395142;19;20401;-70
2022/08/20 04:16:32;;;;;;;57.72;37.38;;;;;;;18.69;100.00;100686.28;7395601;19;20439;-70
2022/08/20 04:19:00;;;;;;;63.75;37.25;;;;;;;18.66;100.00;100689.97;7395825;19;20018;-70
2022/08/20 04:21:29;;;;;;;59.97;36.85;;;;;;;18.65;100.00;100688.28;7395717;19;20046;-70
2022/08/20 04:23:57;;;;;;;57.47;36.97;;;;;;;18.65;100.00;100690.06;7393978;19;20022;-70
2022/08/20 04:26:26;;;;;;;58.47;37.03;;;;;;;18.65;100.00;100687.41;7395373;19;20031;-70
2022/08/20 04:28:57;;;;;;;62.30;39.00;;;;;;;18.63;100.00;100691.97;7395476;19;20031;-70
2022/08/20 04:31:32;;;;;;;61.95;39.53;;;;;;;18.62;100.00;100690.25;7395412;19;20014;-70
2022/08/20 04:34:01;;;;;;;61.17;38.30;;;;;;;18.61;100.00;100685.88;7394156;19;20018;-70
2022/08/20 04:36:30;;;;;;;66.35;40.45;;;;;;;18.61;100.00;100689.38;7394955;19;20018;-70
2022/08/20 04:38:59;;;;;;;64.63;39.28;;;;;;;18.59;100.00;100685.97;7394875;19;20478;-70
2022/08/20 04:41:28;;;;;;;62.28;38.75;;;;;;;18.58;100.00;100686.91;7394841;19;20019;-70
2022/08/20 04:43:59;;;;;;;60.30;38.22;;;;;;;18.58;100.00;100688.69;7392990;19;20022;-70
2022/08/20 04:46:31;;;;;;;62.60;39.85;;;;;;;18.56;100.00;100702.06;7395237;19;20014;-70
2022/08/20 04:49:00;;;;;;;62.13;38.15;;;;;;;18.54;100.00;100711.94;7393429;19;20026;-70
2022/08/20 04:51:28;;;;;;;65.93;38.70;;;;;;;18.52;100.00;100713.81;7394452;19;20461;-70
2022/08/20 04:53:58;;;;;;;65.63;38.30;;;;;;;18.50;100.00;100718.34;7393927;19;20015;-70
2022/08/20 04:56:30;;;;;;;62.40;39.13;;;;;;;18.49;100.00;100717.50;7392877;19;20015;-70
2022/08/20 04:59:02;;;;;;;62.42;38.58;;;;;;;18.49;100.00;100712.19;7393385;19;20018;-70
2022/08/20 05:01:32;;;;;;;62.95;38.33;;;;;;;18.47;100.00;100711.41;7394417;19;20105;-70
2022/08/20 05:04:01;;;;;;;64.32;41.20;;;;;;;18.45;100.00;100715.09;7393757;19;20019;-70
2022/08/20 05:06:43;;;;;;;70.55;42.13;;;;;;;18.48;100.00;100720.25;7394299;19;20014;-70
2022/08/20 05:09:11;;;;;;;71.78;41.60;;;;;;;18.46;100.00;100711.50;7393427;19;20022;-70
2022/08/20 05:11:40;;;;;;;67.30;40.70;;;;;;;18.48;100.00;100722.91;7392091;19;20019;-70
2022/08/20 05:14:12;;;;;;;71.03;40.22;;;;;;;18.48;100.00;100720.25;7392967;19;20490;-70
2022/08/20 05:16:42;;;;;;;66.25;40.17;;;;;;;18.48;100.00;100729.06;7394333;19;20046;-71
2022/08/20 05:19:14;;;;;;;66.82;40.90;;;;;;;18.48;100.00;100721.09;7391896;19;20012;-70
2022/08/20 05:21:43;;;;;;;65.78;40.42;;;;;;;18.51;100.00;100725.38;7394644;19;20023;-70
2022/08/20 05:24:11;;;;;;;67.88;40.55;;;;;;;18.52;100.00;100717.31;7392638;19;20014;-71
2022/08/20 05:26:40;;;;;;;68.47;40.15;;;;;;;18.52;100.00;100725.28;7393406;19;20378;-70
2022/08/20 05:29:11;;;;;;;65.22;40.60;;;;;;;18.52;100.00;100721.78;7393953;19;20018;-70
2022/08/20 05:31:41;;;;;;;60.88;37.90;;;;;;;18.53;100.00;100723.50;7391675;19;20011;-71
2022/08/20 05:34:12;;;;;;;58.85;38.47;;;;;;;18.56;100.00;100728.63;7392047;19;20014;-70
2022/08/20 05:36:42;;;;;;;63.67;38.47;;;;;;;18.56;100.00;100729.50;7392012;19;20019;-70
2022/08/20 05:39:12;;;;;;;64.72;40.70;;;;;;;18.59;100.00;100728.47;7393625;19;20018;-70
2022/08/20 05:41:41;;;;;;;64.75;39.88;;;;;;;18.59;100.00;100730.25;7393080;19;20027;-70
2022/08/20 05:44:13;;;;;;;61.28;38.55;;;;;;;18.61;100.00;100734.53;7391191;19;20027;-70
2022/08/20 05:46:43;;;;;;;66.75;40.53;;;;;;;18.62;100.00;100736.25;7393600;19;20015;-70
2022/08/20 05:49:15;;;;;;;59.92;37.90;;;;;;;18.64;100.00;100731.72;7393447;19;20019;-70
2022/08/20 05:51:43;;;;;;;64.57;41.00;;;;;;;18.66;100.00;100739.59;7391522;19;20085;-70
2022/08/20 05:54:12;;;;;;;62.63;40.22;;;;;;;18.66;100.00;100735.13;7392110;19;20031;-70
2022/08/20 05:56:41;;;;;;;65.57;40.20;;;;;;;18.66;100.00;100745.78;7397009;19;20025;-70
2022/08/20 05:59:13;;;;;;;62.05;39.10;;;;;;;18.64;100.00;100742.34;7400359;19;20018;-70
2022/08/20 06:01:43;;;;;;;64.82;39.80;;;;;;;18.64;100.00;100742.34;7400583;19;20029;-70
2022/08/20 06:04:26;;;;;;;65.00;40.60;;;;;;;18.66;100.00;100752.91;7399124;19;20022;-71
2022/08/20 06:06:58;;;;;;;70.32;39.92;;;;;;;18.65;100.00;100737.88;7400497;19;20018;-69
2022/08/20 06:09:27;;;;;;;64.95;39.72;;;;;;;18.65;100.00;100732.56;7397887;19;20039;-68
2022/08/20 06:11:56;;;;;;;63.90;39.53;;;;;;;18.65;100.00;100744.09;7399895;19;20035;-68
2022/08/20 06:14:27;;;;;;;63.08;38.85;;;;;;;18.66;100.00;100750.25;7397101;19;20082;-70
2022/08/20 06:16:55;;;;;;;62.42;40.42;;;;;;;18.66;100.00;100756.41;7399530;19;20018;-70
2022/08/20 06:19:24;;;;;;;61.10;38.38;;;;;;;18.68;100.00;100757.19;7399465;19;20587;-70
2022/08/20 06:21:52;;;;;;;62.15;38.80;;;;;;;18.69;100.00;100752.72;7400485;19;20435;-70
2022/08/20 06:24:21;;;;;;;59.92;38.60;;;;;;;18.68;100.00;100745.72;7397618;19;20356;-71
2022/08/20 06:26:49;;;;;;;63.90;41.17;;;;;;;18.68;100.00;100751.88;7399763;19;20014;-69
2022/08/20 06:29:18;;;;;;;63.88;40.15;;;;;;;18.67;100.00;100747.50;7399496;19;20019;-69
2022/08/20 06:31:49;;;;;;;66.38;41.67;;;;;;;18.66;100.00;100748.44;7396427;19;20010;-69
2022/08/20 06:34:18;;;;;;;64.65;40.47;;;;;;;18.66;100.00;100748.44;7396876;19;20014;-69
2022/08/20 06:36:47;;;;;;;63.67;40.03;;;;;;;18.67;100.00;100751.97;7399149;19;20035;-69
2022/08/20 06:39:16;;;;;;;62.80;39.65;;;;;;;18.69;100.00;100755.38;7398883;19;20021;-69
2022/08/20 06:41:45;;;;;;;64.97;40.58;;;;;;;18.70;100.00;100757.97;7398696;19;20035;-69
2022/08/20 06:44:13;;;;;;;61.55;38.70;;;;;;;18.71;100.00;100759.66;7397238;19;20538;-69
2022/08/20 06:46:42;;;;;;;63.55;42.72;;;;;;;18.73;100.00;100767.56;7398459;19;20011;-69
2022/08/20 06:49:14;;;;;;;55.95;38.25;;;;;;;18.75;100.00;100765.66;7396753;19;20032;-69
2022/08/20 06:51:43;;;;;;;65.97;39.00;;;;;;;18.79;100.00;100764.56;7398367;19;20019;-69
2022/08/20 06:54:12;;;;;;;58.40;38.53;;;;;;;18.78;100.00;100773.47;7397146;19;20014;-69
2022/08/20 06:56:40;;;;;;;58.17;39.10;;;;;;;18.85;100.00;100779.31;7398285;19;20010;-70
2022/08/20 06:59:09;;;;;;;59.13;38.35;;;;;;;18.88;100.00;100789.78;7398505;19;20018;-69
2022/08/20 07:01:37;;;;;;;61.97;39.95;;;;;;;18.89;100.00;100791.47;7398553;19;20018;-69
2022/08/20 07:04:07;;;;;;;57.15;39.30;;;;;;;18.91;100.00;100792.28;7395859;19;20015;-69
2022/08/20 07:06:38;;;;;;;61.00;40.47;;;;;;;18.87;100.00;100793.38;7395914;19;20078;-69
2022/08/20 07:09:07;;;;;;;54.97;37.53;;;;;;;18.90;100.00;100795.88;7393766;19;20007;-70
2022/08/20 07:11:36;;;;;;;54.33;38.55;;;;;;;18.91;100.00;100797.59;7397766;19;20040;-69
2022/08/20 07:14:04;;;;;;;59.00;38.15;;;;;;;18.92;100.00;100801.09;7396668;19;20086;-69
2022/08/20 07:16:33;;;;;;;56.88;39.67;;;;;;;18.93;100.00;100801.03;7397702;19;20022;-69
2022/08/20 07:19:02;;;;;;;55.13;38.70;;;;;;;18.96;100.00;100798.19;7397884;19;20419;-69
2022/08/20 07:21:31;;;;;;;61.60;39.75;;;;;;;18.98;100.00;100793.66;7397755;19;20014;-69
2022/08/20 07:24:09;;;;;;;55.95;38.20;;;;;;;19.02;100.00;100800.50;7396724;19;20018;-69
2022/08/20 07:26:37;;;;;;;58.30;39.00;;;;;;;19.06;100.00;100798.53;7397925;19;20363;-69
2022/08/20 07:29:06;;;;;;;50.83;37.60;;;;;;;19.07;100.00;100802.03;7396400;19;20018;-69
2022/08/20 07:34:15;;;;;;;60.22;38.92;;;;;;;19.14;100.00;100809.59;7396237;19;20023;-69
2022/08/20 07:36:44;;;;;;;55.72;38.78;;;;;;;19.16;99.57;100814.84;7397078;19;20048;-69
2022/08/20 07:39:16;;;;;;;55.00;39.30;;;;;;;19.16;99.34;100806.88;7397277;19;20038;-69
2022/08/20 07:42:01;;;;;;;54.88;39.63;;;;;;;19.17;99.60;100803.22;7397231;19;20018;-69
2022/08/20 07:44:30;;;;;;;55.25;38.22;;;;;;;19.22;99.49;100809.16;7395589;19;20082;-69
2022/08/20 07:47:03;;;;;;;55.20;37.15;;;;;;;19.25;99.36;100803.66;7395972;19;20514;-69
2022/08/20 07:49:32;;;;;;;49.95;36.28;;;;;;;19.26;99.14;100802.72;7395713;19;20014;-69
2022/08/20 07:52:00;;;;;;;58.85;38.80;;;;;;;19.27;98.82;100799.13;7395091;19;20015;-69
2022/08/20 07:54:31;;;;;;;48.85;37.25;;;;;;;19.28;98.45;100805.28;7394917;19;20014;-69
2022/08/20 07:57:02;;;;;;;52.60;36.72;;;;;;;19.30;98.87;100804.25;7396687;19;20019;-69
2022/08/20 07:59:31;;;;;;;49.92;36.90;;;;;;;19.34;98.32;100799.63;7397130;19;20478;-69
2022/08/20 08:02:00;;;;;;;45.50;35.25;;;;;;;19.41;98.65;100816.06;7396123;19;20026;-69
2022/08/20 08:04:28;;;;;;;46.58;35.03;;;;;;;19.45;98.57;100815.81;7394753;19;20018;-69
2022/08/20 08:06:58;;;;;;;51.42;37.70;;;;;;;19.51;98.04;100823.44;7395824;19;20268;-69
2022/08/20 08:09:28;;;;;;;47.78;36.60;;;;;;;19.54;97.58;100827.72;7393621;19;20086;-69
2022/08/20 08:12:01;;;;;;;49.95;35.40;;;;;;;19.55;97.06;100834.78;7395718;19;20010;-69
2022/08/20 08:14:35;;;;;;;48.20;36.22;;;;;;;19.57;97.42;100832.88;7394640;19;20082;-68
2022/08/20 08:17:06;;;;;;;47.72;36.58;;;;;;;19.59;97.01;100827.44;7395923;19;20030;-70
2022/08/20 08:19:40;;;;;;;48.00;35.13;;;;;;;19.60;96.46;100829.16;7395006;19;20039;-70
2022/08/20 08:22:11;;;;;;;48.15;35.78;;;;;;;19.61;96.95;100833.53;7395551;19;20374;-70
2022/08/20 08:24:40;;;;;;;46.00;36.05;;;;;;;19.61;96.35;100837.06;7393184;19;20490;-69
2022/08/20 08:27:12;;;;;;;49.13;36.78;;;;;;;19.60;96.49;100842.47;7395590;19;20038;-69
2022/08/20 08:29:42;;;;;;;50.78;37.53;;;;;;;19.58;96.68;100839.91;7393498;19;20014;-70
2022/08/20 08:32:10;;;;;;;51.55;37.28;;;;;;;19.58;96.37;100847.91;7394401;19;20493;-71
2022/08/20 08:34:40;;;;;;;54.30;37.65;;;;;;;19.58;96.22;100865.69;7393412;19;20038;-71
2022/08/20 08:37:08;;;;;;;49.13;36.60;;;;;;;19.56;96.58;100862.22;7393012;19;20010;-70
2022/08/20 08:39:37;;;;;;;52.75;38.53;;;;;;;19.55;96.48;100853.41;7394179;19;20499;-70
2022/08/20 08:42:27;;;;;;;49.03;36.22;;;;;;;19.52;96.24;100854.44;7394131;19;20010;-69
2022/08/20 08:44:56;;;;;;;53.70;38.03;;;;;;;19.53;96.56;100858.78;7392839;19;20396;-70
2022/08/20 08:47:30;;;;;;;48.55;37.17;;;;;;;19.57;96.40;100858.63;7394496;19;20024;-70
2022/08/20 08:50:00;;;;;;;50.38;37.38;;;;;;;19.59;96.33;100860.25;7393335;19;20074;-70
2022/08/20 08:52:33;;;;;;;48.92;36.38;;;;;;;19.62;96.04;100870.72;7392068;19;20014;-70
2022/08/20 08:55:05;;;;;;;47.85;34.95;;;;;;;19.64;95.69;100866.16;7392504;19;20015;-70
2022/08/20 08:57:37;;;;;;;52.67;35.72;;;;;;;19.66;95.66;100869.59;7395052;19;20019;-70
2022/08/20 09:00:28;;;;;;;45.80;35.13;;;;;;;19.71;95.61;100864.00;7395408;19;20022;-70
2022/08/20 09:03:01;;;;;;;45.05;34.60;;;;;;;19.73;95.20;100853.25;7393925;19;20087;-70
2022/08/20 09:05:36;;;;;;;43.45;33.63;;;;;;;19.75;95.31;100856.69;7394052;19;20011;-71
2022/08/20 09:08:08;;;;;;;45.40;34.53;;;;;;;19.79;94.80;100863.53;7393844;19;20347;-70
2022/08/20 09:10:50;;;;;;;47.60;34.28;;;;;;;19.82;94.91;100858.94;7392673;19;20014;-70
2022/08/20 09:13:22;;;;;;;43.80;34.65;;;;;;;19.87;94.88;100861.34;7393681;19;20525;-69
2022/08/20 09:15:50;;;;;;;41.78;33.17;;;;;;;19.94;94.00;100861.81;7393754;19;20032;-69
2022/08/20 09:18:19;;;;;;;43.15;33.65;;;;;;;19.98;93.67;100858.03;7394546;19;20014;-70
2022/08/20 09:20:47;;;;;;;41.90;32.55;;;;;;;20.02;93.08;100856.91;7394135;19;20018;-70
2022/08/20 09:23:16;;;;;;;38.55;30.80;;;;;;;20.07;92.75;100862.81;7392657;19;20032;-70
2022/08/20 09:25:44;;;;;;;36.38;29.90;;;;;;;20.11;92.63;100856.34;7392662;19;20023;-70
2022/08/20 09:28:13;;;;;;;39.58;30.30;;;;;;;20.18;91.83;100865.69;7392354;19;20036;-70
2022/08/20 09:30:44;;;;;;;33.88;27.50;;;;;;;20.21;90.86;100864.66;7394115;19;20026;-70
2022/08/20 09:33:13;;;;;;;33.88;28.23;;;;;;;20.24;90.60;100867.09;7398692;19;20032;-70
2022/08/20 09:35:43;;;;;;;34.95;27.88;;;;;;;20.25;90.46;100862.66;7400376;19;20015;-70
2022/08/20 09:38:12;;;;;;;33.35;27.92;;;;;;;20.28;90.29;100862.47;7401172;19;20022;-70
2022/08/20 09:40:40;;;;;;;31.63;25.30;;;;;;;20.30;89.32;100858.75;7400469;19;20018;-70
2022/08/20 09:43:10;;;;;;;28.20;23.92;;;;;;;20.34;89.05;100856.75;7399195;19;20018;-71
2022/08/20 09:45:39;;;;;;;27.40;23.20;;;;;;;20.40;88.54;100859.06;7400757;19;20015;-70
2022/08/20 09:48:10;;;;;;;27.67;23.02;;;;;;;20.43;88.23;100866.84;7400106;19;20474;-70
2022/08/20 09:50:42;;;;;;;29.85;23.48;;;;;;;20.47;87.28;100863.06;7400474;19;20502;-70
2022/08/20 09:53:12;;;;;;;27.15;22.20;;;;;;;20.49;86.81;100868.28;7400705;19;20019;-70
2022/08/20 09:55:42;;;;;;;28.85;23.77;;;;;;;20.50;86.71;100868.19;7397637;19;20422;-70
2022/08/20 09:58:21;;;;;;;26.05;22.20;;;;;;;20.51;86.99;100861.06;7398344;19;20108;-70
2022/08/20 10:00:50;;;;;;;25.40;21.65;;;;;;;20.51;86.71;100867.25;7399666;19;20013;-70
2022/08/20 10:03:21;;;;;;;23.25;20.85;;;;;;;20.50;86.69;100864.69;7399783;19;20019;-70
2022/08/20 10:05:49;;;;;;;25.15;20.92;;;;;;;20.51;86.52;100864.56;7400704;19;20015;-70
2022/08/20 10:08:18;;;;;;;25.33;19.25;;;;;;;20.53;86.09;100867.16;7398873;19;20525;-69
2022/08/20 10:10:47;;;;;;;22.80;18.13;;;;;;;20.49;84.58;100874.47;7397052;19;20014;-70
2022/08/20 10:13:15;;;;;;;19.40;17.40;;;;;;;20.51;85.53;100866.41;7399662;19;20018;-70
2022/08/20 10:15:44;;;;;;;20.58;17.85;;;;;;;20.51;85.42;100851.25;7399992;19;20377;-70
2022/08/20 10:18:12;;;;;;;21.15;18.92;;;;;;;20.50;83.46;100865.53;7399413;19;20502;-70
2022/08/20 10:20:44;;;;;;;20.38;18.20;;;;;;;20.52;84.76;100854.75;7399575;19;20022;-70
2022/08/20 10:23:12;;;;;;;18.75;16.92;;;;;;;20.54;84.58;100860.88;7396483;19;20332;-71
2022/08/20 10:25:41;;;;;;;19.08;17.10;;;;;;;20.53;83.71;100875.13;7398845;19;20032;-70
2022/08/20 10:28:09;;;;;;;20.00;16.83;;;;;;;20.53;83.56;100867.16;7398674;19;20502;-69
2022/08/20 10:30:38;;;;;;;18.08;16.17;;;;;;;20.55;83.51;100872.38;7399270;19;20043;-69
2022/08/20 10:33:07;;;;;;;18.83;16.20;;;;;;;20.56;83.58;100874.97;7396247;19;20031;-69
2022/08/20 10:35:35;;;;;;;18.17;16.15;;;;;;;20.60;83.85;100871.16;7398789;19;20019;-70
2022/08/20 10:38:06;;;;;;;19.10;16.08;;;;;;;20.66;83.67;100868.09;7396335;19;20018;-70
2022/08/20 10:40:35;;;;;;;17.98;14.82;;;;;;;20.70;83.51;100865.22;7398633;19;20027;-69
2022/08/20 10:43:03;;;;;;;18.63;16.83;;;;;;;20.71;82.49;100862.50;7395869;19;20027;-71
2022/08/20 10:45:32;;;;;;;17.50;15.65;;;;;;;20.74;83.43;100866.78;7399012;19;20011;-70
2022/08/20 10:48:01;;;;;;;18.25;15.32;;;;;;;20.76;82.88;100878.22;7398807;19;20018;-70
2022/08/20 10:50:30;;;;;;;17.05;15.25;;;;;;;20.76;82.58;100876.44;7396718;19;20074;-70
2022/08/20 10:52:59;;;;;;;18.13;14.55;;;;;;;20.77;81.72;100894.09;7398505;19;20022;-70
2022/08/20 10:55:30;;;;;;;17.92;16.13;;;;;;;20.76;82.10;100881.75;7397740;19;20034;-70
2022/08/20 10:57:58;;;;;;;16.13;14.40;;;;;;;20.77;81.80;100887.94;7398247;19;20027;-70
2022/08/20 11:00:27;;;;;;;16.75;15.15;;;;;;;20.78;81.79;100884.31;7398368;19;20035;-70
2022/08/20 11:02:56;;;;;;;16.70;15.10;;;;;;;20.76;82.06;100881.75;7397753;19;20014;-70
2022/08/20 11:05:24;;;;;;;15.57;14.00;;;;;;;20.78;82.15;100889.66;7398163;19;20015;-70
2022/08/20 11:07:53;;;;;;;15.48;13.82;;;;;;;20.79;82.02;100888.72;7397589;19;20486;-69
2022/08/20 11:10:23;;;;;;;16.40;14.80;;;;;;;20.79;81.83;100894.03;7395856;19;20122;-70
2022/08/20 11:12:54;;;;;;;16.05;14.40;;;;;;;20.78;81.69;100887.84;7398023;19;20134;-70
2022/08/20 11:15:24;;;;;;;16.10;13.98;;;;;;;20.78;81.72;100890.50;7398391;19;20028;-70
2022/08/20 11:17:52;;;;;;;16.67;14.45;;;;;;;20.81;82.16;100886.78;7397377;19;20039;-70
2022/08/20 11:20:25;;;;;;;15.18;13.57;;;;;;;20.85;82.08;100888.28;7397356;19;20015;-70
2022/08/20 11:22:54;;;;;;;15.25;13.77;;;;;;;20.86;81.47;100898.00;7396921;19;20132;-70